Timeline UpdatesTrip UpdatesNews PostsPvt PostsTravel TipsAdmin PostsConv PostsFollowed PostsChat RequestsBlog PostsPNR Posts

Disclaimer
Search
 
 
Thu Apr 24, 2014 19:08:25 ISTHomeTrainsΣChainsAtlasPNRForumGalleryNewsFAQTripsMembersLoginFeedback
No Recent News for this Train
Other Trains in the News **new
Latest...
.
Sun Feb 23, 2014 (02:12AM)
⇐ Return Journey: Train# 15483

14084⇒15484/Sikkim Mahananda Express

Jan 14 2014 (8:06PM)
Change Departure Station:
Change Arrival Station:
Post a Train Travel TipPost a Train Travel Tip **new
Post a Comment/Question/Picture/VideoPost a Comment/Question/Picture/Video
Pantry/Catering
✓ Pantry Car Avbl
✓ Catering Avbl
RSA - Rake Sharing
Rake/Coach Composition
LOCO-SLR-GEN-GEN-S1-S2-S3-S4-S5-S6-S7- S8-S9-S10-S11-S12-S13- PC-B2-AB1-B1-GEN-GEN-GEN-SLR. By Atharvayadav Entry# 714350
Loco
DLI - PNBE: Mughalsarai shed WAP-4 or Ghaziabad shed WAP-4/7 PNBE...
Read more...
- APDJ: WDP4/4B of Siliguri shed. **Spotted with MGS WAP-4 22739 at MGS on 30/03/2013**
News    PNR    Forum    Time-Table    Availability    Fare Chart    Map    Arr/Dep History    Trips    Gallery    ΣChains    X/O    Timeline    
Travel Time: 6h 16m    11 halts    Distance: 316 km    Avg Speed: 50 km/hr
Type: Mail/Express
Zone: NFR/Northeast Frontier
Departs @ 06:40 (Avg 1h 2m late)
Platform# 9
SMTWTFS
Old Delhi Junction/DLI 
Arrives @ 12:56 (Avg 1h 26m late)
Platform# 3
SMTWTFS
Bharthana/BNT 

11 halts. 45 intermediate Stations between Old Delhi Junction and Bharthana

Show ALL intermediate Stations  Show Old Time-Table

#CodeStation NameX/OArrivesAvgDepartsAvgHaltPFDay#KmSpeedElevZoneAddress
1DLI»Old Delhi Junction (16)»  -06:40+1:02910.024219mNRNear Chandni Chowk Metro Station, Delhi NCT
2DSAShahdara Junction (4)  06:56+1:0606:58+1:052m216.329212mNRCircular Rd, Delhi NCT
3GZBGhaziabad Junction (6)X  07:26+1:0307:28+1:072m2119.980217mNRGhaziabad, Uttar Pradesh
4CHLChola (3)  08:04+1:2208:06+1:292m--168.058204mNCRTahsil Bulandshahar, Uttar Pradesh
5KRJKhurja Junction (4)  08:21+1:3108:23+1:232m2182.671199mNCRBulandshahr, Uttar Pradesh
6ALJNAligarh Junction (4)X  09:00+1:2109:05+1:215m11126.182192mNCRAligarh, Uttar Pradesh
7HRSHathras Junction (3)X  09:27+1:1909:32+1:175m11156.286183mNCRMahamaya Nagar(05722-242803), Uttar Pradesh
8JLSJalesar Road (1)X  09:46+1:1909:48+1:232m11176.323172mNCRMDR 106W, Uttar Pradesh
9TDLTundla Junction (4)  11:00+1:1111:08+1:118m31204.245167mNCRDistt.Firozabad, Uttar Pradesh
10FZDFirozabad (4)  11:30+1:1111:32+1:142m21220.857164mNCRFirozabad, Uttar Pradesh
11SKBShikohabad Junction (4)X  11:53+1:1111:55+1:132m21240.677166mNCRDistrict Firozabad, Uttar Pradesh
12ETWEtawah (5)  12:38+1:2212:40+1:252m31296.075154mNCRDistt. Etawah, Uttar Pradesh
13BNT•Bharthana (3)•  12:56+1:2612:58+1:262m31315.969147mNCRBharthana, Uttar Pradesh
14ULDAchalda (3)  13:15+1:2713:17+1:282m31335.463147mNCRDist. Auraiya(05688-1072), Uttar Pradesh
15PHDPhaphund (4)X  13:33+1:2813:35+1:282m31352.270146mNCRdist. Auraiya, Uttar Pradesh
16JJKJhinjhak (3)  13:52+1:2913:54+1:292m31372.067140mNCRAuraiya, Uttar Pradesh
17RURARura (4)  14:11+1:3114:13+1:322m31391.145137mNCRJhinjhak, Uttar Pradesh
18CNBKanpur Central (10)X  15:12+1:5415:20+2:028m51435.474128mNCRKanpur, Uttar Pradesh
19FTPFatehpur (3)  16:23+2:1016:25+2:142m21513.078120mNCRFatehpur, Uttar Pradesh
20ALDAllahabad Junction (10)X  17:55+2:4018:05+2:4110m41629.739100mNCRAllahabad 211003, Uttar Pradesh
21NYNNaini Junction (4)  18:16+2:5118:18+2:542m11636.88698mNCRAllahabad, Uttar Pradesh
22BDLVindhyachal (3)X  19:10+3:4719:12+3:492m21711.62188mNCRMirzapur, Uttar Pradesh
23MZPMirzapur (3)X  19:33+3:4519:35+3:552m21718.94588mNCRMirzapur, Uttar Pradesh
24MGSMughal Sarai Junction (8)X  21:00+4:4621:15+4:4715m11782.16683mECRMughalsarai 232101, Uttar Pradesh
25BXRBuxar (3)  22:41+4:4022:43+4:432m--1876.09167mECRBuxar, Bihar
26ARAAra Junction (3)X  23:28+4:4023:30+4:482m--1944.58863mECRarrah( 06182-233411), Bihar
27DNRDanapur (5)  23:57+4:5523:59+4:582m--1984.11658mECRKhagaul, Bihar
28PNBEPatna Junction (10)00:35+5:0201:00+5:0525m22993.57757mECRPatna 800001, Bihar
29BKPBakhtiyarpur Junction (5)X  01:35+5:2001:37+5:212m--21038.65951mECRPatna, Bihar
30MKAMokama Junction (3)X  02:22+5:1602:24+5:232m--21082.71448mECRPatna, Bihar
31BJUBarauni Junction (9)  03:55+5:1104:00+5:125m121103.437 ECRBegusarai, Bihar
32BGSBegu Sarai (2)X  04:22+4:5704:24+4:572m--21116.836 ECRBegusarai, Bihar
33LKNLakhminia  04:54+4:5504:56+4:542m--21134.64845mECRBegusarai, Bihar
34SKJSahibpur Kamal Junction (2)  05:08+4:5205:10+4:522m--21144.32941mECRShahpur Kamal, Bihar
35KGGKhagaria Junction (3)XO  05:36+4:5005:38+5:002m--21156.76643mECRKhagaria, Bihar
36MNEMansi Junction (3)O  05:46+4:5005:48+4:522m--21165.54243mECRMansi, Bihar
37MSKMahes Khunt  06:03+4:4406:05+4:512m--21175.93237mECRMaheshkhunt, Bihar
38PSRPasraha  06:28+4:4606:30+4:572m--21188.32541mECRPasraha, Bihar
39NNRNarayanpurO  06:58+4:5307:00+5:002m--21199.91639mECRNarayanpur, Bihar
40THBThana Bihpur JunctionX  07:28+4:4007:30+4:412m--21207.52839mECRThana Bihpur, Bihar
41NNANaugachiaX  08:04+4:3408:06+4:342m--21223.43737mECRBhagalpur, Bihar
42KUEKurselaX  08:36+4:2908:38+4:292m--21241.96031mECRNH 31, Bihar
43CRRKaragola Road  08:55+4:2508:57+4:262m--21258.94636mECRLachhmipur, Bihar
44SMOSemapurX09:11+4:2309:13+4:322m--21269.74135mECRKatihar, Bihar
45KIRKatihar Junction (7)  09:30+4:4309:50+4:5720m621281.25335mNFR854105., Bihar
46LAVLabha  10:16+4:4210:18+4:442m--21304.05529mNFRNational Highway 81, Bihar
47AZRAzamnagar Road (2)X  10:41+4:4310:43+4:452m--21325.16234mNFRAzamnagar, Bihar
48BOEBarsoi Junction (3)  10:56+4:3610:58+4:362m--21338.47637mNFRdist- katihar, Bihar
49DLKDalkhola (3)  11:21+4:4011:23+4:412m--21367.56844mNFRDalkola, West Bengal
50KNEKishanGanj (3)  11:48+4:4411:50+4:442m121396.07352mNFRKishanganj, Bihar
51AUBAluabari Road (2)X  12:15+4:4812:17+4:562m221426.6470mNFRDist - uttar Dinajpur, West Bengal
52NJPNew Jalpaiguri Junction (8)X  13:30+4:4413:45+4:4715m121483.322114mNFRCity-Siliguri . Dist-Jalpaiguri, West Bengal
53SGUJSiliguri Junction (5)  14:05+4:5014:10+4:565m421490.651120mNFRDist-Darjeeling Siliguri-734001, West Bengal
54NMZNew Mal Junction (3)X  15:06+4:5515:11+5:035m--21538.468161mNFRDist - Jalpaiguri, West Bengal
55BNVBinnaguri (3)  15:50+5:0215:52+5:092m--21582.750132mNFRBinnaguri, West Bengal
56DLODalgaon (3)  16:03+5:0216:05+5:092m--21591.943120mNFRPh:03563-266013, West Bengal
57HSAHasimara (3)X  16:40+5:1016:42+5:162m--21617.027123mNFRDist - jalpaiguri, West Bengal
58APDJAlipur Duar Junction (3)  18:00+5:02---21651.8-53mNFR03564-255091, West Bengal
Scroll to Top
Scroll to Bottom